sensor_id;sensor_type;location;lat;lon;timestamp;P1;durP1;ratioP1;P2;durP2;ratioP2
7110;SDS011;3597;42.650;23.386;2023-07-09T00:01:50;1.77;;;1.67;;
7110;SDS011;3597;42.650;23.386;2023-07-09T00:04:16;1.47;;;1.47;;
7110;SDS011;3597;42.650;23.386;2023-07-09T00:06:42;1.47;;;1.37;;
7110;SDS011;3597;42.650;23.386;2023-07-09T00:09:14;2.23;;;1.60;;
7110;SDS011;3597;42.650;23.386;2023-07-09T00:11:42;1.40;;;1.40;;
7110;SDS011;3597;42.650;23.386;2023-07-09T00:14:09;1.50;;;1.50;;
7110;SDS011;3597;42.650;23.386;2023-07-09T00:16:35;1.40;;;1.40;;
7110;SDS011;3597;42.650;23.386;2023-07-09T00:19:14;1.40;;;1.40;;
7110;SDS011;3597;42.650;23.386;2023-07-09T00:21:44;1.63;;;1.53;;
7110;SDS011;3597;42.650;23.386;2023-07-09T00:24:12;1.23;;;1.23;;
7110;SDS011;3597;42.650;23.386;2023-07-09T00:26:38;1.43;;;1.43;;
7110;SDS011;3597;42.650;23.386;2023-07-09T00:29:09;1.53;;;1.53;;
7110;SDS011;3597;42.650;23.386;2023-07-09T00:31:35;1.63;;;1.57;;
7110;SDS011;3597;42.650;23.386;2023-07-09T00:34:04;1.37;;;1.37;;
7110;SDS011;3597;42.650;23.386;2023-07-09T00:36:30;1.40;;;1.40;;
7110;SDS011;3597;42.650;23.386;2023-07-09T00:38:59;1.60;;;1.60;;
7110;SDS011;3597;42.650;23.386;2023-07-09T00:41:29;1.50;;;1.40;;
7110;SDS011;3597;42.650;23.386;2023-07-09T00:43:57;1.37;;;1.37;;
7110;SDS011;3597;42.650;23.386;2023-07-09T00:48:54;1.23;;;1.23;;
7110;SDS011;3597;42.650;23.386;2023-07-09T00:51:25;1.60;;;1.60;;
7110;SDS011;3597;42.650;23.386;2023-07-09T00:53:52;1.43;;;1.43;;
7110;SDS011;3597;42.650;23.386;2023-07-09T00:56:39;1.40;;;1.40;;
7110;SDS011;3597;42.650;23.386;2023-07-09T00:59:06;1.30;;;1.30;;
7110;SDS011;3597;42.650;23.386;2023-07-09T01:01:35;1.40;;;1.30;;
7110;SDS011;3597;42.650;23.386;2023-07-09T01:04:00;1.70;;;1.67;;
7110;SDS011;3597;42.650;23.386;2023-07-09T01:06:32;1.70;;;1.70;;
7110;SDS011;3597;42.650;23.386;2023-07-09T01:09:04;1.37;;;1.37;;
7110;SDS011;3597;42.650;23.386;2023-07-09T01:11:29;1.40;;;1.40;;
7110;SDS011;3597;42.650;23.386;2023-07-09T01:13:56;1.47;;;1.47;;
7110;SDS011;3597;42.650;23.386;2023-07-09T01:16:27;1.70;;;1.60;;
7110;SDS011;3597;42.650;23.386;2023-07-09T01:18:54;1.50;;;1.50;;
7110;SDS011;3597;42.650;23.386;2023-07-09T01:21:20;1.63;;;1.63;;
7110;SDS011;3597;42.650;23.386;2023-07-09T01:23:46;1.57;;;1.57;;
7110;SDS011;3597;42.650;23.386;2023-07-09T01:26:14;1.40;;;1.40;;
7110;SDS011;3597;42.650;23.386;2023-07-09T01:28:41;1.33;;;1.33;;
7110;SDS011;3597;42.650;23.386;2023-07-09T01:31:08;1.57;;;1.57;;
7110;SDS011;3597;42.650;23.386;2023-07-09T01:33:34;1.60;;;1.50;;
7110;SDS011;3597;42.650;23.386;2023-07-09T01:36:00;1.50;;;1.50;;
7110;SDS011;3597;42.650;23.386;2023-07-09T01:38:26;1.50;;;1.50;;
7110;SDS011;3597;42.650;23.386;2023-07-09T01:40:55;1.60;;;1.60;;
7110;SDS011;3597;42.650;23.386;2023-07-09T01:43:21;1.40;;;1.40;;
7110;SDS011;3597;42.650;23.386;2023-07-09T01:45:46;1.37;;;1.37;;
7110;SDS011;3597;42.650;23.386;2023-07-09T01:48:15;1.70;;;1.70;;
7110;SDS011;3597;42.650;23.386;2023-07-09T01:50:41;1.50;;;1.50;;
7110;SDS011;3597;42.650;23.386;2023-07-09T01:53:08;1.80;;;1.67;;
7110;SDS011;3597;42.650;23.386;2023-07-09T01:55:35;1.87;;;1.87;;
7110;SDS011;3597;42.650;23.386;2023-07-09T01:58:01;1.70;;;1.60;;
7110;SDS011;3597;42.650;23.386;2023-07-09T02:00:31;1.80;;;1.80;;
7110;SDS011;3597;42.650;23.386;2023-07-09T02:02:57;1.70;;;1.70;;
7110;SDS011;3597;42.650;23.386;2023-07-09T02:05:23;2.10;;;2.00;;
7110;SDS011;3597;42.650;23.386;2023-07-09T02:07:48;1.60;;;1.60;;
7110;SDS011;3597;42.650;23.386;2023-07-09T02:10:14;1.83;;;1.73;;
7110;SDS011;3597;42.650;23.386;2023-07-09T02:12:41;1.60;;;1.60;;
7110;SDS011;3597;42.650;23.386;2023-07-09T02:15:06;1.57;;;1.57;;
7110;SDS011;3597;42.650;23.386;2023-07-09T02:17:32;1.93;;;1.93;;
7110;SDS011;3597;42.650;23.386;2023-07-09T02:19:58;1.87;;;1.87;;
7110;SDS011;3597;42.650;23.386;2023-07-09T02:22:23;1.60;;;1.60;;
7110;SDS011;3597;42.650;23.386;2023-07-09T02:24:49;2.10;;;2.10;;
7110;SDS011;3597;42.650;23.386;2023-07-09T02:27:16;2.00;;;1.90;;
7110;SDS011;3597;42.650;23.386;2023-07-09T02:29:42;1.80;;;1.80;;
7110;SDS011;3597;42.650;23.386;2023-07-09T02:32:07;2.27;;;2.20;;
7110;SDS011;3597;42.650;23.386;2023-07-09T02:34:41;2.50;;;2.40;;
7110;SDS011;3597;42.650;23.386;2023-07-09T02:37:06;2.10;;;2.10;;
7110;SDS011;3597;42.650;23.386;2023-07-09T02:39:32;1.90;;;1.90;;
7110;SDS011;3597;42.650;23.386;2023-07-09T02:41:57;2.03;;;2.03;;
7110;SDS011;3597;42.650;23.386;2023-07-09T02:44:22;1.73;;;1.73;;
7110;SDS011;3597;42.650;23.386;2023-07-09T02:46:48;2.13;;;2.03;;
7110;SDS011;3597;42.650;23.386;2023-07-09T02:49:13;1.80;;;1.80;;
7110;SDS011;3597;42.650;23.386;2023-07-09T02:51:39;1.70;;;1.70;;
7110;SDS011;3597;42.650;23.386;2023-07-09T02:54:05;1.80;;;1.80;;
7110;SDS011;3597;42.650;23.386;2023-07-09T02:56:31;1.70;;;1.70;;
7110;SDS011;3597;42.650;23.386;2023-07-09T02:58:56;2.00;;;2.00;;
7110;SDS011;3597;42.650;23.386;2023-07-09T03:01:22;4.00;;;2.10;;
7110;SDS011;3597;42.650;23.386;2023-07-09T03:03:56;2.23;;;2.13;;
7110;SDS011;3597;42.650;23.386;2023-07-09T03:06:24;1.80;;;1.80;;
7110;SDS011;3597;42.650;23.386;2023-07-09T03:08:50;1.53;;;1.53;;
7110;SDS011;3597;42.650;23.386;2023-07-09T03:11:16;1.60;;;1.60;;
7110;SDS011;3597;42.650;23.386;2023-07-09T03:13:42;1.60;;;1.60;;
7110;SDS011;3597;42.650;23.386;2023-07-09T03:16:08;1.70;;;1.70;;
7110;SDS011;3597;42.650;23.386;2023-07-09T03:18:34;1.80;;;1.80;;
7110;SDS011;3597;42.650;23.386;2023-07-09T03:20:59;1.80;;;1.80;;
7110;SDS011;3597;42.650;23.386;2023-07-09T03:23:25;1.77;;;1.77;;
7110;SDS011;3597;42.650;23.386;2023-07-09T03:25:50;1.80;;;1.80;;
7110;SDS011;3597;42.650;23.386;2023-07-09T03:28:16;1.60;;;1.60;;
7110;SDS011;3597;42.650;23.386;2023-07-09T03:30:42;1.97;;;1.97;;
7110;SDS011;3597;42.650;23.386;2023-07-09T03:33:08;1.83;;;1.83;;
7110;SDS011;3597;42.650;23.386;2023-07-09T03:35:34;1.60;;;1.60;;
7110;SDS011;3597;42.650;23.386;2023-07-09T03:38:00;1.57;;;1.57;;
7110;SDS011;3597;42.650;23.386;2023-07-09T03:40:25;2.00;;;1.97;;
7110;SDS011;3597;42.650;23.386;2023-07-09T03:42:51;1.47;;;1.47;;
7110;SDS011;3597;42.650;23.386;2023-07-09T03:45:16;1.60;;;1.60;;
7110;SDS011;3597;42.650;23.386;2023-07-09T03:47:41;1.60;;;1.60;;
7110;SDS011;3597;42.650;23.386;2023-07-09T03:50:07;1.67;;;1.67;;
7110;SDS011;3597;42.650;23.386;2023-07-09T03:52:34;1.57;;;1.57;;
7110;SDS011;3597;42.650;23.386;2023-07-09T03:54:59;1.60;;;1.60;;
7110;SDS011;3597;42.650;23.386;2023-07-09T03:57:26;1.70;;;1.60;;
7110;SDS011;3597;42.650;23.386;2023-07-09T03:59:52;2.10;;;2.10;;
7110;SDS011;3597;42.650;23.386;2023-07-09T04:02:17;2.10;;;2.10;;
7110;SDS011;3597;42.650;23.386;2023-07-09T04:04:43;2.37;;;2.27;;
7110;SDS011;3597;42.650;23.386;2023-07-09T04:07:08;2.67;;;2.67;;
7110;SDS011;3597;42.650;23.386;2023-07-09T04:09:33;4.57;;;4.40;;
7110;SDS011;3597;42.650;23.386;2023-07-09T04:11:59;3.23;;;3.23;;
7110;SDS011;3597;42.650;23.386;2023-07-09T04:14:26;4.17;;;3.87;;
7110;SDS011;3597;42.650;23.386;2023-07-09T04:16:52;6.07;;;5.97;;
7110;SDS011;3597;42.650;23.386;2023-07-09T04:19:17;5.90;;;5.80;;
7110;SDS011;3597;42.650;23.386;2023-07-09T04:21:43;7.30;;;7.20;;
7110;SDS011;3597;42.650;23.386;2023-07-09T04:24:08;7.30;;;7.20;;
7110;SDS011;3597;42.650;23.386;2023-07-09T04:26:33;5.27;;;5.17;;
7110;SDS011;3597;42.650;23.386;2023-07-09T04:29:00;3.00;;;3.00;;
7110;SDS011;3597;42.650;23.386;2023-07-09T04:31:25;2.00;;;2.00;;
7110;SDS011;3597;42.650;23.386;2023-07-09T04:33:51;1.70;;;1.70;;
7110;SDS011;3597;42.650;23.386;2023-07-09T04:36:17;1.90;;;1.90;;
7110;SDS011;3597;42.650;23.386;2023-07-09T04:38:43;1.73;;;1.73;;
7110;SDS011;3597;42.650;23.386;2023-07-09T04:41:08;1.70;;;1.70;;
7110;SDS011;3597;42.650;23.386;2023-07-09T04:43:33;1.93;;;1.83;;
7110;SDS011;3597;42.650;23.386;2023-07-09T04:45:59;1.97;;;1.97;;
7110;SDS011;3597;42.650;23.386;2023-07-09T04:48:24;1.90;;;1.90;;
7110;SDS011;3597;42.650;23.386;2023-07-09T04:50:50;2.27;;;2.13;;
7110;SDS011;3597;42.650;23.386;2023-07-09T04:53:15;2.80;;;2.70;;
7110;SDS011;3597;42.650;23.386;2023-07-09T04:55:41;2.10;;;2.10;;
7110;SDS011;3597;42.650;23.386;2023-07-09T04:58:07;2.07;;;2.07;;
7110;SDS011;3597;42.650;23.386;2023-07-09T05:00:32;1.95;;;1.85;;
7110;SDS011;3597;42.650;23.386;2023-07-09T05:02:57;1.90;;;1.80;;
7110;SDS011;3597;42.650;23.386;2023-07-09T05:05:23;1.98;;;1.88;;
7110;SDS011;3597;42.650;23.386;2023-07-09T05:07:48;2.25;;;2.20;;
7110;SDS011;3597;42.650;23.386;2023-07-09T05:10:14;2.25;;;2.25;;
7110;SDS011;3597;42.650;23.386;2023-07-09T05:12:49;2.10;;;2.10;;
7110;SDS011;3597;42.650;23.386;2023-07-09T05:15:18;2.08;;;2.08;;
7110;SDS011;3597;42.650;23.386;2023-07-09T05:17:45;2.47;;;2.38;;
7110;SDS011;3597;42.650;23.386;2023-07-09T05:20:11;2.80;;;2.70;;
7110;SDS011;3597;42.650;23.386;2023-07-09T05:22:36;3.20;;;3.10;;
7110;SDS011;3597;42.650;23.386;2023-07-09T05:25:02;3.30;;;3.20;;
7110;SDS011;3597;42.650;23.386;2023-07-09T05:27:27;3.80;;;3.70;;
7110;SDS011;3597;42.650;23.386;2023-07-09T05:29:52;4.18;;;4.07;;
7110;SDS011;3597;42.650;23.386;2023-07-09T05:32:18;4.60;;;4.50;;
7110;SDS011;3597;42.650;23.386;2023-07-09T05:34:43;3.70;;;3.60;;
7110;SDS011;3597;42.650;23.386;2023-07-09T05:37:08;3.20;;;3.10;;
7110;SDS011;3597;42.650;23.386;2023-07-09T05:39:34;3.55;;;2.28;;
7110;SDS011;3597;42.650;23.386;2023-07-09T05:41:59;1.67;;;1.67;;
7110;SDS011;3597;42.650;23.386;2023-07-09T05:44:24;1.70;;;1.70;;
7110;SDS011;3597;42.650;23.386;2023-07-09T05:46:50;1.73;;;1.73;;
7110;SDS011;3597;42.650;23.386;2023-07-09T05:49:15;1.73;;;1.73;;
7110;SDS011;3597;42.650;23.386;2023-07-09T05:51:40;1.60;;;1.55;;
7110;SDS011;3597;42.650;23.386;2023-07-09T05:54:06;1.70;;;1.70;;
7110;SDS011;3597;42.650;23.386;2023-07-09T05:56:32;1.50;;;1.50;;
7110;SDS011;3597;42.650;23.386;2023-07-09T05:58:57;1.40;;;1.40;;
7110;SDS011;3597;42.650;23.386;2023-07-09T06:01:22;1.42;;;1.42;;
7110;SDS011;3597;42.650;23.386;2023-07-09T06:03:48;1.48;;;1.48;;
7110;SDS011;3597;42.650;23.386;2023-07-09T06:06:14;1.65;;;1.55;;
7110;SDS011;3597;42.650;23.386;2023-07-09T06:08:39;1.40;;;1.40;;
7110;SDS011;3597;42.650;23.386;2023-07-09T06:11:05;2.28;;;1.67;;
7110;SDS011;3597;42.650;23.386;2023-07-09T06:13:31;1.75;;;1.75;;
7110;SDS011;3597;42.650;23.386;2023-07-09T06:15:57;2.97;;;2.75;;
7110;SDS011;3597;42.650;23.386;2023-07-09T06:18:23;2.55;;;2.42;;
7110;SDS011;3597;42.650;23.386;2023-07-09T06:20:50;1.73;;;1.73;;
7110;SDS011;3597;42.650;23.386;2023-07-09T06:23:17;1.90;;;1.80;;
7110;SDS011;3597;42.650;23.386;2023-07-09T06:25:43;2.20;;;2.10;;
7110;SDS011;3597;42.650;23.386;2023-07-09T06:28:12;2.05;;;2.05;;
7110;SDS011;3597;42.650;23.386;2023-07-09T06:30:38;2.03;;;1.90;;
7110;SDS011;3597;42.650;23.386;2023-07-09T06:33:03;2.40;;;2.40;;
7110;SDS011;3597;42.650;23.386;2023-07-09T06:35:29;1.90;;;1.90;;
7110;SDS011;3597;42.650;23.386;2023-07-09T06:37:54;1.95;;;1.80;;
7110;SDS011;3597;42.650;23.386;2023-07-09T06:40:19;1.58;;;1.58;;
7110;SDS011;3597;42.650;23.386;2023-07-09T06:42:45;1.40;;;1.40;;
7110;SDS011;3597;42.650;23.386;2023-07-09T06:45:10;1.60;;;1.60;;
7110;SDS011;3597;42.650;23.386;2023-07-09T06:47:36;1.70;;;1.60;;
7110;SDS011;3597;42.650;23.386;2023-07-09T06:50:01;1.50;;;1.50;;
7110;SDS011;3597;42.650;23.386;2023-07-09T06:52:26;1.60;;;1.55;;
7110;SDS011;3597;42.650;23.386;2023-07-09T06:54:52;1.50;;;1.50;;
7110;SDS011;3597;42.650;23.386;2023-07-09T06:57:17;1.40;;;1.40;;
7110;SDS011;3597;42.650;23.386;2023-07-09T06:59:42;1.80;;;1.80;;
7110;SDS011;3597;42.650;23.386;2023-07-09T07:02:08;1.67;;;1.67;;
7110;SDS011;3597;42.650;23.386;2023-07-09T07:04:33;1.42;;;1.42;;
7110;SDS011;3597;42.650;23.386;2023-07-09T07:06:59;1.60;;;1.60;;
7110;SDS011;3597;42.650;23.386;2023-07-09T07:09:24;1.50;;;1.50;;
7110;SDS011;3597;42.650;23.386;2023-07-09T07:11:50;1.42;;;1.42;;
7110;SDS011;3597;42.650;23.386;2023-07-09T07:14:15;1.42;;;1.42;;
7110;SDS011;3597;42.650;23.386;2023-07-09T07:16:41;1.58;;;1.58;;
7110;SDS011;3597;42.650;23.386;2023-07-09T07:19:06;1.80;;;1.73;;
7110;SDS011;3597;42.650;23.386;2023-07-09T07:21:31;1.40;;;1.40;;
7110;SDS011;3597;42.650;23.386;2023-07-09T07:23:57;1.65;;;1.65;;
7110;SDS011;3597;42.650;23.386;2023-07-09T07:26:22;1.30;;;1.30;;
7110;SDS011;3597;42.650;23.386;2023-07-09T07:28:48;1.67;;;1.67;;
7110;SDS011;3597;42.650;23.386;2023-07-09T07:31:15;1.38;;;1.33;;
7110;SDS011;3597;42.650;23.386;2023-07-09T07:33:40;1.33;;;1.33;;
7110;SDS011;3597;42.650;23.386;2023-07-09T07:36:06;1.50;;;1.50;;
7110;SDS011;3597;42.650;23.386;2023-07-09T07:38:32;1.73;;;1.70;;
7110;SDS011;3597;42.650;23.386;2023-07-09T07:40:58;1.40;;;1.40;;
7110;SDS011;3597;42.650;23.386;2023-07-09T07:43:23;2.10;;;2.00;;
7110;SDS011;3597;42.650;23.386;2023-07-09T07:45:48;1.77;;;1.70;;
7110;SDS011;3597;42.650;23.386;2023-07-09T07:48:14;1.80;;;1.80;;
7110;SDS011;3597;42.650;23.386;2023-07-09T07:50:39;2.00;;;1.90;;
7110;SDS011;3597;42.650;23.386;2023-07-09T07:53:06;2.10;;;2.10;;
7110;SDS011;3597;42.650;23.386;2023-07-09T07:55:33;1.90;;;1.90;;
7110;SDS011;3597;42.650;23.386;2023-07-09T07:57:58;1.90;;;1.90;;
7110;SDS011;3597;42.650;23.386;2023-07-09T08:00:25;2.38;;;2.38;;
7110;SDS011;3597;42.650;23.386;2023-07-09T08:02:50;2.15;;;2.15;;
7110;SDS011;3597;42.650;23.386;2023-07-09T08:05:16;2.22;;;2.22;;
7110;SDS011;3597;42.650;23.386;2023-07-09T08:07:41;2.30;;;2.20;;
7110;SDS011;3597;42.650;23.386;2023-07-09T08:10:07;2.00;;;2.00;;
7110;SDS011;3597;42.650;23.386;2023-07-09T08:12:33;1.90;;;1.90;;
7110;SDS011;3597;42.650;23.386;2023-07-09T08:14:58;1.83;;;1.83;;
7110;SDS011;3597;42.650;23.386;2023-07-09T08:17:23;1.92;;;1.92;;
7110;SDS011;3597;42.650;23.386;2023-07-09T08:19:50;1.90;;;1.90;;
7110;SDS011;3597;42.650;23.386;2023-07-09T08:22:17;1.88;;;1.88;;
7110;SDS011;3597;42.650;23.386;2023-07-09T08:24:45;1.90;;;1.90;;
7110;SDS011;3597;42.650;23.386;2023-07-09T08:27:11;1.90;;;1.90;;
7110;SDS011;3597;42.650;23.386;2023-07-09T08:29:36;2.10;;;2.00;;
7110;SDS011;3597;42.650;23.386;2023-07-09T08:32:02;2.00;;;2.00;;
7110;SDS011;3597;42.650;23.386;2023-07-09T08:34:28;1.70;;;1.70;;
7110;SDS011;3597;42.650;23.386;2023-07-09T08:36:54;1.80;;;1.80;;
7110;SDS011;3597;42.650;23.386;2023-07-09T08:39:19;2.13;;;2.05;;
7110;SDS011;3597;42.650;23.386;2023-07-09T08:41:45;1.85;;;1.85;;
7110;SDS011;3597;42.650;23.386;2023-07-09T08:47:03;2.00;;;2.00;;
7110;SDS011;3597;42.650;23.386;2023-07-09T08:52:00;2.40;;;2.40;;
7110;SDS011;3597;42.650;23.386;2023-07-09T08:54:27;1.90;;;1.90;;
7110;SDS011;3597;42.650;23.386;2023-07-09T08:56:55;1.73;;;1.73;;
7110;SDS011;3597;42.650;23.386;2023-07-09T08:59:25;1.80;;;1.80;;
7110;SDS011;3597;42.650;23.386;2023-07-09T09:01:52;2.10;;;2.10;;
7110;SDS011;3597;42.650;23.386;2023-07-09T09:07:00;1.80;;;1.80;;
7110;SDS011;3597;42.650;23.386;2023-07-09T09:09:47;1.88;;;1.88;;
7110;SDS011;3597;42.650;23.386;2023-07-09T09:12:21;1.70;;;1.70;;
7110;SDS011;3597;42.650;23.386;2023-07-09T09:15:18;1.75;;;1.75;;
7110;SDS011;3597;42.650;23.386;2023-07-09T09:17:45;1.88;;;1.88;;
7110;SDS011;3597;42.650;23.386;2023-07-09T09:20:19;1.80;;;1.80;;
7110;SDS011;3597;42.650;23.386;2023-07-09T09:22:51;1.90;;;1.90;;
7110;SDS011;3597;42.650;23.386;2023-07-09T09:25:23;1.70;;;1.70;;
7110;SDS011;3597;42.650;23.386;2023-07-09T09:27:50;1.70;;;1.70;;
7110;SDS011;3597;42.650;23.386;2023-07-09T09:30:16;2.45;;;1.85;;
7110;SDS011;3597;42.650;23.386;2023-07-09T09:32:44;1.60;;;1.60;;
7110;SDS011;3597;42.650;23.386;2023-07-09T09:35:13;1.70;;;1.70;;
7110;SDS011;3597;42.650;23.386;2023-07-09T09:37:40;2.20;;;2.20;;
7110;SDS011;3597;42.650;23.386;2023-07-09T09:40:08;1.70;;;1.70;;
7110;SDS011;3597;42.650;23.386;2023-07-09T09:42:34;1.73;;;1.73;;
7110;SDS011;3597;42.650;23.386;2023-07-09T09:45:00;2.38;;;2.28;;
7110;SDS011;3597;42.650;23.386;2023-07-09T09:47:26;1.85;;;1.85;;
7110;SDS011;3597;42.650;23.386;2023-07-09T09:49:52;1.75;;;1.75;;
7110;SDS011;3597;42.650;23.386;2023-07-09T09:52:18;1.77;;;1.77;;
7110;SDS011;3597;42.650;23.386;2023-07-09T09:54:46;1.75;;;1.75;;
7110;SDS011;3597;42.650;23.386;2023-07-09T09:57:20;1.80;;;1.80;;
7110;SDS011;3597;42.650;23.386;2023-07-09T09:59:47;1.70;;;1.70;;
7110;SDS011;3597;42.650;23.386;2023-07-09T10:02:23;1.63;;;1.52;;
7110;SDS011;3597;42.650;23.386;2023-07-09T10:04:50;2.10;;;2.10;;
7110;SDS011;3597;42.650;23.386;2023-07-09T10:07:27;1.65;;;1.65;;
7110;SDS011;3597;42.650;23.386;2023-07-09T10:09:55;1.70;;;1.70;;
7110;SDS011;3597;42.650;23.386;2023-07-09T10:14:56;1.70;;;1.70;;
7110;SDS011;3597;42.650;23.386;2023-07-09T10:17:46;1.80;;;1.70;;
7110;SDS011;3597;42.650;23.386;2023-07-09T10:20:23;1.60;;;1.60;;
7110;SDS011;3597;42.650;23.386;2023-07-09T10:22:53;1.70;;;1.70;;
7110;SDS011;3597;42.650;23.386;2023-07-09T10:33:23;1.60;;;1.60;;
7110;SDS011;3597;42.650;23.386;2023-07-09T10:35:55;1.65;;;1.65;;
7110;SDS011;3597;42.650;23.386;2023-07-09T10:41:13;1.80;;;1.70;;
7110;SDS011;3597;42.650;23.386;2023-07-09T10:46:34;1.77;;;1.77;;
7110;SDS011;3597;42.650;23.386;2023-07-09T10:49:02;1.60;;;1.60;;
7110;SDS011;3597;42.650;23.386;2023-07-09T10:56:28;1.52;;;1.52;;
7110;SDS011;3597;42.650;23.386;2023-07-09T10:58:58;1.52;;;1.52;;
7110;SDS011;3597;42.650;23.386;2023-07-09T11:01:32;1.50;;;1.50;;
7110;SDS011;3597;42.650;23.386;2023-07-09T11:04:05;1.70;;;1.70;;
7110;SDS011;3597;42.650;23.386;2023-07-09T11:06:40;1.70;;;1.70;;
7110;SDS011;3597;42.650;23.386;2023-07-09T11:09:22;1.70;;;1.70;;
7110;SDS011;3597;42.650;23.386;2023-07-09T11:11:49;1.67;;;1.67;;
7110;SDS011;3597;42.650;23.386;2023-07-09T11:17:17;1.90;;;1.90;;
7110;SDS011;3597;42.650;23.386;2023-07-09T11:19:45;1.60;;;1.60;;
7110;SDS011;3597;42.650;23.386;2023-07-09T11:30:32;1.40;;;1.40;;
7110;SDS011;3597;42.650;23.386;2023-07-09T11:32:58;1.35;;;1.27;;
7110;SDS011;3597;42.650;23.386;2023-07-09T11:35:27;3.38;;;1.58;;
7110;SDS011;3597;42.650;23.386;2023-07-09T11:37:54;1.25;;;1.25;;
7110;SDS011;3597;42.650;23.386;2023-07-09T11:40:21;1.30;;;1.30;;
7110;SDS011;3597;42.650;23.386;2023-07-09T11:42:54;1.40;;;1.40;;
7110;SDS011;3597;42.650;23.386;2023-07-09T11:50:43;1.52;;;1.52;;
7110;SDS011;3597;42.650;23.386;2023-07-09T11:55:54;1.30;;;1.30;;
7110;SDS011;3597;42.650;23.386;2023-07-09T11:58:20;1.20;;;1.20;;
7110;SDS011;3597;42.650;23.386;2023-07-09T12:00:47;1.40;;;1.40;;
7110;SDS011;3597;42.650;23.386;2023-07-09T12:05:55;1.40;;;1.40;;
7110;SDS011;3597;42.650;23.386;2023-07-09T12:08:32;1.25;;;1.25;;
7110;SDS011;3597;42.650;23.386;2023-07-09T12:10:59;1.52;;;1.52;;
7110;SDS011;3597;42.650;23.386;2023-07-09T12:13:25;1.40;;;1.40;;
7110;SDS011;3597;42.650;23.386;2023-07-09T12:15:50;1.40;;;1.40;;
7110;SDS011;3597;42.650;23.386;2023-07-09T12:18:15;1.20;;;1.20;;
7110;SDS011;3597;42.650;23.386;2023-07-09T12:20:41;1.45;;;1.45;;
7110;SDS011;3597;42.650;23.386;2023-07-09T12:23:29;1.48;;;1.38;;
7110;SDS011;3597;42.650;23.386;2023-07-09T12:25:59;1.48;;;1.48;;
7110;SDS011;3597;42.650;23.386;2023-07-09T12:28:26;1.58;;;1.52;;
7110;SDS011;3597;42.650;23.386;2023-07-09T12:30:52;1.50;;;1.50;;
7110;SDS011;3597;42.650;23.386;2023-07-09T12:33:19;1.60;;;1.60;;
7110;SDS011;3597;42.650;23.386;2023-07-09T12:35:46;1.40;;;1.40;;
7110;SDS011;3597;42.650;23.386;2023-07-09T12:38:17;1.63;;;1.63;;
7110;SDS011;3597;42.650;23.386;2023-07-09T12:40:44;1.42;;;1.42;;
7110;SDS011;3597;42.650;23.386;2023-07-09T12:43:10;1.35;;;1.35;;
7110;SDS011;3597;42.650;23.386;2023-07-09T12:45:36;1.50;;;1.50;;
7110;SDS011;3597;42.650;23.386;2023-07-09T12:48:01;1.60;;;1.60;;
7110;SDS011;3597;42.650;23.386;2023-07-09T12:50:29;2.67;;;2.10;;
7110;SDS011;3597;42.650;23.386;2023-07-09T12:52:56;1.85;;;1.85;;
7110;SDS011;3597;42.650;23.386;2023-07-09T12:55:26;2.15;;;2.15;;
7110;SDS011;3597;42.650;23.386;2023-07-09T12:57:58;2.50;;;2.40;;
7110;SDS011;3597;42.650;23.386;2023-07-09T13:00:26;1.70;;;1.70;;
7110;SDS011;3597;42.650;23.386;2023-07-09T13:02:55;1.77;;;1.77;;
7110;SDS011;3597;42.650;23.386;2023-07-09T13:05:22;1.80;;;1.80;;
7110;SDS011;3597;42.650;23.386;2023-07-09T13:08:01;2.10;;;2.10;;
7110;SDS011;3597;42.650;23.386;2023-07-09T13:10:28;1.98;;;1.98;;
7110;SDS011;3597;42.650;23.386;2023-07-09T13:12:59;1.90;;;1.90;;
7110;SDS011;3597;42.650;23.386;2023-07-09T13:18:13;1.73;;;1.73;;
7110;SDS011;3597;42.650;23.386;2023-07-09T13:20:41;2.40;;;2.17;;
7110;SDS011;3597;42.650;23.386;2023-07-09T13:25:38;2.55;;;2.55;;
7110;SDS011;3597;42.650;23.386;2023-07-09T13:28:04;2.92;;;2.83;;
7110;SDS011;3597;42.650;23.386;2023-07-09T13:30:29;3.30;;;3.20;;
7110;SDS011;3597;42.650;23.386;2023-07-09T13:32:56;3.30;;;3.20;;
7110;SDS011;3597;42.650;23.386;2023-07-09T13:35:22;3.33;;;3.25;;
7110;SDS011;3597;42.650;23.386;2023-07-09T13:37:47;2.92;;;2.85;;
7110;SDS011;3597;42.650;23.386;2023-07-09T13:40:14;2.40;;;2.40;;
7110;SDS011;3597;42.650;23.386;2023-07-09T13:42:41;2.30;;;2.30;;
7110;SDS011;3597;42.650;23.386;2023-07-09T13:45:15;2.80;;;2.80;;
7110;SDS011;3597;42.650;23.386;2023-07-09T13:47:44;2.20;;;2.20;;
7110;SDS011;3597;42.650;23.386;2023-07-09T13:50:10;2.90;;;2.90;;
7110;SDS011;3597;42.650;23.386;2023-07-09T13:52:35;2.90;;;2.90;;
7110;SDS011;3597;42.650;23.386;2023-07-09T13:55:01;3.03;;;3.03;;
7110;SDS011;3597;42.650;23.386;2023-07-09T13:57:26;3.20;;;3.15;;
7110;SDS011;3597;42.650;23.386;2023-07-09T13:59:51;3.30;;;3.30;;
7110;SDS011;3597;42.650;23.386;2023-07-09T14:02:24;3.20;;;3.15;;
7110;SDS011;3597;42.650;23.386;2023-07-09T14:04:56;2.67;;;2.67;;
7110;SDS011;3597;42.650;23.386;2023-07-09T14:07:27;3.10;;;3.10;;
7110;SDS011;3597;42.650;23.386;2023-07-09T14:09:54;3.08;;;3.08;;
7110;SDS011;3597;42.650;23.386;2023-07-09T14:12:20;3.00;;;3.00;;
7110;SDS011;3597;42.650;23.386;2023-07-09T14:14:50;3.22;;;3.22;;
7110;SDS011;3597;42.650;23.386;2023-07-09T14:17:16;3.35;;;3.33;;
7110;SDS011;3597;42.650;23.386;2023-07-09T14:19:42;3.30;;;3.30;;
7110;SDS011;3597;42.650;23.386;2023-07-09T14:24:57;3.00;;;3.00;;
7110;SDS011;3597;42.650;23.386;2023-07-09T14:27:23;3.00;;;3.00;;
7110;SDS011;3597;42.650;23.386;2023-07-09T14:29:48;3.45;;;3.33;;
7110;SDS011;3597;42.650;23.386;2023-07-09T14:32:28;3.10;;;3.10;;
7110;SDS011;3597;42.650;23.386;2023-07-09T14:34:55;3.20;;;3.20;;
7110;SDS011;3597;42.650;23.386;2023-07-09T14:37:21;3.45;;;3.45;;
7110;SDS011;3597;42.650;23.386;2023-07-09T14:39:46;3.53;;;3.53;;
7110;SDS011;3597;42.650;23.386;2023-07-09T14:42:12;3.50;;;3.50;;
7110;SDS011;3597;42.650;23.386;2023-07-09T14:44:37;4.28;;;4.18;;
7110;SDS011;3597;42.650;23.386;2023-07-09T14:47:04;3.80;;;3.78;;
7110;SDS011;3597;42.650;23.386;2023-07-09T14:49:37;3.30;;;3.30;;
7110;SDS011;3597;42.650;23.386;2023-07-09T14:52:02;3.50;;;3.50;;
7110;SDS011;3597;42.650;23.386;2023-07-09T14:54:29;3.42;;;3.38;;
7110;SDS011;3597;42.650;23.386;2023-07-09T14:56:55;3.10;;;3.10;;
7110;SDS011;3597;42.650;23.386;2023-07-09T14:59:22;3.30;;;3.30;;
7110;SDS011;3597;42.650;23.386;2023-07-09T15:01:48;3.15;;;3.15;;
7110;SDS011;3597;42.650;23.386;2023-07-09T15:04:28;3.58;;;3.40;;
7110;SDS011;3597;42.650;23.386;2023-07-09T15:06:55;3.20;;;3.20;;
7110;SDS011;3597;42.650;23.386;2023-07-09T15:09:21;2.80;;;2.80;;
7110;SDS011;3597;42.650;23.386;2023-07-09T15:11:52;3.30;;;3.20;;
7110;SDS011;3597;42.650;23.386;2023-07-09T15:14:19;2.95;;;2.95;;
7110;SDS011;3597;42.650;23.386;2023-07-09T15:16:46;3.15;;;3.15;;
7110;SDS011;3597;42.650;23.386;2023-07-09T15:19:12;3.17;;;3.17;;
7110;SDS011;3597;42.650;23.386;2023-07-09T15:21:39;3.47;;;3.38;;
7110;SDS011;3597;42.650;23.386;2023-07-09T15:24:04;3.45;;;3.45;;
7110;SDS011;3597;42.650;23.386;2023-07-09T15:26:30;3.30;;;3.30;;
7110;SDS011;3597;42.650;23.386;2023-07-09T15:28:57;3.10;;;3.10;;
7110;SDS011;3597;42.650;23.386;2023-07-09T15:31:22;3.47;;;3.47;;
7110;SDS011;3597;42.650;23.386;2023-07-09T15:33:47;3.08;;;3.08;;
7110;SDS011;3597;42.650;23.386;2023-07-09T15:36:13;3.45;;;3.42;;
7110;SDS011;3597;42.650;23.386;2023-07-09T15:38:38;3.03;;;3.03;;
7110;SDS011;3597;42.650;23.386;2023-07-09T15:41:08;3.33;;;3.33;;
7110;SDS011;3597;42.650;23.386;2023-07-09T15:43:37;4.45;;;4.35;;
7110;SDS011;3597;42.650;23.386;2023-07-09T15:46:02;4.25;;;4.15;;
7110;SDS011;3597;42.650;23.386;2023-07-09T15:48:32;3.35;;;3.30;;
7110;SDS011;3597;42.650;23.386;2023-07-09T15:50:59;3.55;;;3.45;;
7110;SDS011;3597;42.650;23.386;2023-07-09T15:53:26;4.20;;;4.00;;
7110;SDS011;3597;42.650;23.386;2023-07-09T15:55:52;4.07;;;4.07;;
7110;SDS011;3597;42.650;23.386;2023-07-09T15:58:24;3.85;;;3.75;;
7110;SDS011;3597;42.650;23.386;2023-07-09T16:00:51;4.32;;;4.22;;
7110;SDS011;3597;42.650;23.386;2023-07-09T16:03:17;5.22;;;5.13;;